Time;durP1;ratioP1;P1;durP2;ratioP2;P2;SDS_P1;SDS_P2;PMS_P1;PMS_P2;Temp;Humidity;BMP_temperature;BMP_pressure;BME280_temperature;BME280_humidity;BME280_pressure;Samples;Min_cycle;Max_cycle;Signal;HPM_P1;HPM_P2
2022/07/19 00:01:33;;;;;;;0.10;0.10;;;;;;;26.16;45.55;100596.03;7351769;19;20115;-62
2022/07/19 00:03:59;;;;;;;0.10;0.10;;;;;;;26.03;45.50;100550.78;7353359;19;20036;-62
2022/07/19 00:06:24;;;;;;;0.10;0.10;;;;;;;26.11;45.54;100644.63;7352047;19;20042;-62
2022/07/19 00:08:50;;;;;;;0.05;0.05;;;;;;;26.07;46.08;100623.63;7352643;19;20014;-62
2022/07/19 00:11:15;;;;;;;0.08;0.08;;;;;;;25.96;45.35;100629.91;7350611;19;20011;-62
2022/07/19 00:13:41;;;;;;;0.00;0.00;;;;;;;25.99;46.12;100667.09;7352291;19;20022;-62
2022/07/19 00:16:06;;;;;;;0.10;0.10;;;;;;;25.90;45.72;100673.25;7350638;19;20036;-62
2022/07/19 00:18:32;;;;;;;0.00;0.00;;;;;;;25.78;45.85;100663.63;7350950;19;20407;-62
2022/07/19 00:20:57;;;;;;;0.00;0.00;;;;;;;25.68;46.64;100678.75;7354091;19;20030;-62
2022/07/19 00:23:23;;;;;;;0.10;0.10;;;;;;;25.60;46.17;100650.00;7353890;19;20014;-62
2022/07/19 00:25:48;;;;;;;0.10;0.10;;;;;;;25.50;45.84;100633.91;7353350;19;20018;-62
2022/07/19 00:28:13;;;;;;;0.00;0.00;;;;;;;25.54;45.88;100640.66;7349393;19;20015;-62
2022/07/19 00:30:39;;;;;;;0.00;0.00;;;;;;;25.52;46.80;100653.34;7352793;19;20013;-62
2022/07/19 00:33:08;;;;;;;0.10;0.10;;;;;;;25.45;46.55;100635.28;7352536;19;20038;-62
2022/07/19 00:35:34;;;;;;;0.10;0.10;;;;;;;25.45;47.00;100636.13;7352298;19;20007;-63
2022/07/19 00:38:11;;;;;;;0.05;0.05;;;;;;;25.45;46.83;100625.44;7351633;19;20010;-62
2022/07/19 00:40:37;;;;;;;0.00;0.00;;;;;;;25.42;46.91;100631.03;7352999;19;20021;-62
2022/07/19 00:43:04;;;;;;;0.00;0.00;;;;;;;25.41;46.77;100639.19;7351146;19;20494;-62
2022/07/19 00:45:29;;;;;;;0.00;0.00;;;;;;;25.36;46.29;100620.88;7351059;19;20590;-62
2022/07/19 00:47:55;;;;;;;0.10;0.10;;;;;;;25.32;46.94;100624.78;7350641;19;20023;-62
2022/07/19 00:50:21;;;;;;;0.03;0.03;;;;;;;25.27;47.24;100605.63;7351295;19;20114;-62
2022/07/19 00:52:50;;;;;;;0.03;0.03;;;;;;;25.24;46.93;100595.19;7351589;19;20022;-62
2022/07/19 00:55:18;;;;;;;0.00;0.00;;;;;;;25.20;46.54;100609.81;7352927;19;20010;-62
2022/07/19 00:57:44;;;;;;;0.08;0.08;;;;;;;25.16;46.74;100603.03;7350271;19;20782;-62
2022/07/19 01:00:10;;;;;;;0.07;0.07;;;;;;;25.10;47.72;100599.91;7350438;19;20026;-62
2022/07/19 01:02:37;;;;;;;0.00;0.00;;;;;;;25.06;47.06;100598.47;7352376;19;20479;-62
2022/07/19 01:05:03;;;;;;;0.00;0.00;;;;;;;24.93;47.39;100578.22;7350232;19;20015;-62
2022/07/19 01:07:29;;;;;;;0.00;0.00;;;;;;;24.98;47.50;100600.91;7348951;19;20113;-62
2022/07/19 01:09:54;;;;;;;0.10;0.10;;;;;;;24.90;47.15;100595.38;7349607;19;20006;-62
2022/07/19 01:12:22;;;;;;;0.00;0.00;;;;;;;24.92;47.88;100609.44;7348476;19;20017;-62
2022/07/19 01:14:48;;;;;;;0.10;0.10;;;;;;;24.77;46.96;100595.56;7350693;19;20786;-62
2022/07/19 01:17:14;;;;;;;0.10;0.10;;;;;;;24.85;46.50;100606.44;7349237;19;20095;-62
2022/07/19 01:19:42;;;;;;;0.10;0.10;;;;;;;24.84;47.62;100609.25;7351518;19;20695;-62
2022/07/19 01:22:08;;;;;;;0.00;0.00;;;;;;;24.80;46.75;100597.13;7351241;19;20007;-62
2022/07/19 01:24:33;;;;;;;0.10;0.10;;;;;;;24.77;48.29;100586.69;7351800;19;20013;-62
2022/07/19 01:26:58;;;;;;;0.05;0.05;;;;;;;24.74;47.95;100584.31;7348166;19;20040;-62
2022/07/19 01:29:24;;;;;;;0.00;0.00;;;;;;;24.71;47.71;100593.41;7349828;19;20031;-63
2022/07/19 01:31:50;;;;;;;0.00;0.00;;;;;;;24.67;47.93;100591.13;7354464;19;20026;-62
2022/07/19 01:34:15;;;;;;;0.00;0.00;;;;;;;24.65;46.73;100577.06;7355715;19;20014;-62
2022/07/19 01:36:41;;;;;;;0.10;0.10;;;;;;;24.62;48.19;100587.97;7354728;19;20492;-61
2022/07/19 01:39:06;;;;;;;0.00;0.00;;;;;;;24.58;48.00;100593.59;7354433;19;20023;-62
2022/07/19 01:41:32;;;;;;;0.05;0.05;;;;;;;24.53;47.79;100592.25;7355447;19;20022;-62
2022/07/19 01:43:57;;;;;;;0.10;0.10;;;;;;;24.48;48.09;100570.44;7354224;19;20033;-62
2022/07/19 01:46:22;;;;;;;0.00;0.00;;;;;;;24.46;48.49;100561.72;7355523;19;20009;-62
2022/07/19 01:48:48;;;;;;;0.10;0.10;;;;;;;24.33;47.74;100545.81;7354166;19;20038;-62
2022/07/19 01:51:13;;;;;;;0.00;0.00;;;;;;;24.38;47.78;100548.16;7353605;19;20083;-62
2022/07/19 01:53:39;;;;;;;0.10;0.10;;;;;;;24.38;48.57;100557.03;7355173;19;20650;-62
2022/07/19 01:56:05;;;;;;;0.10;0.10;;;;;;;24.34;48.48;100569.75;7353107;19;20041;-62
2022/07/19 01:58:31;;;;;;;0.00;0.00;;;;;;;24.33;49.01;100564.50;7347503;19;20052;-62
2022/07/19 02:00:57;;;;;;;0.08;0.08;;;;;;;24.31;49.38;100561.97;7362952;19;20410;-62
2022/07/19 02:03:22;;;;;;;0.00;0.00;;;;;;;24.31;48.05;100569.13;7358183;19;20019;-62
2022/07/19 02:05:47;;;;;;;0.00;0.00;;;;;;;24.29;48.74;100571.09;7361610;19;20019;-62
2022/07/19 02:08:13;;;;;;;0.00;0.00;;;;;;;24.27;47.81;100562.34;7360874;19;20049;-62
2022/07/19 02:10:38;;;;;;;0.00;0.00;;;;;;;24.24;49.59;100546.59;7362246;19;20109;-62
2022/07/19 02:13:04;;;;;;;0.00;0.00;;;;;;;24.20;49.08;100546.00;7362027;19;20006;-62
2022/07/19 02:15:29;;;;;;;0.00;0.00;;;;;;;24.16;48.56;100539.22;7363005;19;20018;-62
2022/07/19 02:17:55;;;;;;;0.10;0.10;;;;;;;24.19;49.41;100554.16;7359441;19;20042;-62
2022/07/19 02:20:24;;;;;;;0.00;0.00;;;;;;;24.18;49.21;100547.09;7362680;19;20018;-62
2022/07/19 02:22:50;;;;;;;0.00;0.00;;;;;;;24.16;49.56;100554.38;7362877;19;20010;-62
2022/07/19 02:25:15;;;;;;;0.05;0.05;;;;;;;24.03;49.50;100535.88;7359987;19;20044;-62
2022/07/19 02:27:41;;;;;;;0.00;0.00;;;;;;;24.13;49.66;100563.50;7359958;19;20049;-62
2022/07/19 02:30:07;;;;;;;0.00;0.00;;;;;;;24.12;49.78;100558.25;7359030;19;20781;-62
2022/07/19 02:32:33;;;;;;;0.10;0.10;;;;;;;24.12;49.77;100558.25;7357847;19;20038;-62
2022/07/19 02:34:58;;;;;;;0.00;0.00;;;;;;;24.10;49.32;100552.22;7362482;19;20010;-62
2022/07/19 02:37:24;;;;;;;0.03;0.03;;;;;;;24.08;49.81;100553.19;7360027;19;20006;-62
2022/07/19 02:39:49;;;;;;;0.10;0.10;;;;;;;24.07;49.64;100553.31;7366519;19;20020;-62
2022/07/19 02:42:15;;;;;;;0.10;0.10;;;;;;;24.06;50.02;100549.78;7368229;19;20010;-62
2022/07/19 02:44:40;;;;;;;0.00;0.00;;;;;;;24.00;49.70;100534.28;7367905;19;20063;-63
2022/07/19 02:47:05;;;;;;;0.00;0.00;;;;;;;24.01;49.52;100535.97;7367148;19;20014;-62
2022/07/19 02:49:31;;;;;;;0.00;0.00;;;;;;;23.99;49.87;100543.28;7367336;19;21256;-62
2022/07/19 02:51:56;;;;;;;0.00;0.00;;;;;;;23.97;49.96;100537.19;7368178;19;20459;-62
2022/07/19 02:54:22;;;;;;;0.00;0.00;;;;;;;23.92;50.08;100534.06;7365353;19;20109;-62
2022/07/19 02:56:47;;;;;;;0.03;0.03;;;;;;;23.90;49.80;100528.00;7369071;19;20034;-63
2022/07/19 02:59:13;;;;;;;0.00;0.00;;;;;;;23.89;48.76;100531.66;7365512;19;20016;-63
2022/07/19 03:01:38;;;;;;;0.08;0.08;;;;;;;23.84;50.28;100525.84;7364221;19;20002;-63
2022/07/19 03:04:04;;;;;;;0.08;0.08;;;;;;;23.81;50.10;100523.41;7352041;19;20592;-62
2022/07/19 03:06:29;;;;;;;0.00;0.00;;;;;;;23.75;49.89;100515.91;7366928;19;20014;-63
2022/07/19 03:08:55;;;;;;;0.00;0.00;;;;;;;23.72;49.99;100514.38;7367476;19;25304;-62
2022/07/19 03:11:20;;;;;;;0.00;0.00;;;;;;;23.61;50.10;100500.16;7366658;19;20541;-62
2022/07/19 03:13:45;;;;;;;0.10;0.10;;;;;;;23.63;50.08;100503.56;7367192;19;20597;-63
2022/07/19 03:16:11;;;;;;;0.00;0.00;;;;;;;23.48;50.38;100490.50;7369522;19;20019;-63
2022/07/19 03:18:36;;;;;;;0.00;0.00;;;;;;;23.46;49.81;100481.75;7363541;19;20182;-63
2022/07/19 03:21:02;;;;;;;0.00;0.00;;;;;;;23.52;49.76;100496.44;7360224;19;20587;-62
2022/07/19 03:23:31;;;;;;;0.00;0.00;;;;;;;23.49;50.13;100497.50;7366266;19;20010;-62
2022/07/19 03:25:56;;;;;;;0.08;0.08;;;;;;;23.44;49.69;100489.03;7363620;19;20081;-63
2022/07/19 03:28:22;;;;;;;0.00;0.00;;;;;;;23.36;50.07;100491.44;7366776;19;20558;-63
2022/07/19 03:30:47;;;;;;;0.00;0.00;;;;;;;23.36;50.19;100488.78;7362414;19;20006;-62
2022/07/19 03:33:15;;;;;;;0.00;0.00;;;;;;;23.31;50.01;100482.97;7360738;19;20096;-63
2022/07/19 03:35:43;;;;;;;0.00;0.00;;;;;;;23.27;50.69;100471.72;7364880;19;20002;-63
2022/07/19 03:38:09;;;;;;;0.00;0.00;;;;;;;23.25;50.19;100467.47;7365037;19;20457;-63
2022/07/19 03:40:34;;;;;;;0.00;0.00;;;;;;;23.15;50.50;100450.53;7366327;19;20098;-62
2022/07/19 03:43:00;;;;;;;0.10;0.10;;;;;;;23.17;50.66;100454.78;7365241;19;20070;-63
2022/07/19 03:45:25;;;;;;;0.10;0.10;;;;;;;23.13;50.43;100452.47;7365237;19;20459;-62
2022/07/19 03:47:50;;;;;;;0.00;0.00;;;;;;;23.07;50.68;100452.97;7359351;19;20007;-62
2022/07/19 03:50:16;;;;;;;0.00;0.00;;;;;;;23.12;49.91;100466.78;7360802;19;20010;-62
2022/07/19 03:52:41;;;;;;;0.00;0.00;;;;;;;23.09;50.93;100461.69;7365521;19;20014;-63
2022/07/19 03:55:07;;;;;;;0.10;0.10;;;;;;;22.97;50.80;100448.38;7364484;19;20010;-63
2022/07/19 03:57:33;;;;;;;0.00;0.00;;;;;;;23.04;51.06;100465.53;7363723;19;20094;-62
2022/07/19 03:59:58;;;;;;;0.00;0.00;;;;;;;23.02;50.93;100446.19;7363528;19;20015;-63
2022/07/19 04:02:23;;;;;;;0.10;0.10;;;;;;;23.00;51.29;100442.78;7365819;19;20015;-62
2022/07/19 04:04:49;;;;;;;0.00;0.00;;;;;;;22.98;51.36;100427.91;7366584;19;20017;-63
2022/07/19 04:07:14;;;;;;;0.00;0.00;;;;;;;22.94;51.29;100421.97;7366027;19;20480;-63
2022/07/19 04:09:40;;;;;;;0.10;0.10;;;;;;;22.92;51.33;100413.25;7368160;19;20610;-62
2022/07/19 04:12:05;;;;;;;0.00;0.00;;;;;;;22.90;51.30;100430.31;7364633;19;20014;-63
2022/07/19 04:14:30;;;;;;;0.03;0.03;;;;;;;22.74;51.26;100409.34;7366918;19;20018;-62
2022/07/19 04:16:56;;;;;;;0.10;0.10;;;;;;;22.82;51.37;100424.72;7368021;19;20051;-63
2022/07/19 04:19:21;;;;;;;0.00;0.00;;;;;;;22.79;51.02;100417.81;7367917;19;20030;-63
2022/07/19 04:21:47;;;;;;;0.10;0.10;;;;;;;22.76;50.74;100418.06;7365016;19;20017;-63
2022/07/19 04:24:12;;;;;;;0.00;0.00;;;;;;;22.73;51.48;100407.66;7367046;19;20049;-62
2022/07/19 04:26:38;;;;;;;0.00;0.00;;;;;;;22.59;51.07;100390.09;7362589;19;20018;-63
2022/07/19 04:29:03;;;;;;;0.10;0.10;;;;;;;22.66;51.34;100407.28;7364282;19;20010;-62
2022/07/19 04:31:29;;;;;;;0.00;0.00;;;;;;;22.62;51.46;100410.31;7365053;19;20014;-62
2022/07/19 04:33:54;;;;;;;0.10;0.10;;;;;;;22.60;51.69;100412.22;7366484;19;20442;-63
2022/07/19 04:36:19;;;;;;;0.00;0.00;;;;;;;22.57;50.37;100407.16;7366579;19;20521;-62
2022/07/19 04:38:45;;;;;;;0.05;0.05;;;;;;;22.49;52.06;100403.25;7367273;19;20034;-63
2022/07/19 04:41:10;;;;;;;0.10;0.10;;;;;;;22.47;51.44;100402.53;7365634;19;20366;-62
2022/07/19 04:43:36;;;;;;;0.00;0.00;;;;;;;22.43;51.92;100406.38;7366682;19;20011;-62
2022/07/19 04:46:01;;;;;;;0.00;0.00;;;;;;;22.39;51.18;100404.09;7366568;19;20014;-62
2022/07/19 04:48:28;;;;;;;0.08;0.08;;;;;;;22.36;51.34;100407.84;7366097;19;20006;-62
2022/07/19 04:50:53;;;;;;;0.00;0.00;;;;;;;22.34;52.41;100404.44;7363878;19;20010;-62
2022/07/19 04:53:18;;;;;;;0.00;0.00;;;;;;;22.31;52.27;100402.03;7366195;19;20479;-63
2022/07/19 04:55:44;;;;;;;0.10;0.10;;;;;;;22.29;51.79;100414.56;7365250;19;20034;-63
2022/07/19 04:58:09;;;;;;;0.08;0.08;;;;;;;22.28;51.79;100418.22;7365623;19;20119;-63
2022/07/19 05:00:35;;;;;;;0.00;0.00;;;;;;;22.26;52.72;100409.50;7364638;19;20010;-62
2022/07/19 05:03:00;;;;;;;0.10;0.10;;;;;;;22.27;53.07;100411.19;7362865;19;20053;-62
2022/07/19 05:05:25;;;;;;;0.00;0.00;;;;;;;22.26;52.26;100401.53;7365050;19;20487;-63
2022/07/19 05:07:51;;;;;;;0.08;0.08;;;;;;;22.27;52.58;100405.88;7364409;19;20010;-63
2022/07/19 05:10:16;;;;;;;0.03;0.03;;;;;;;22.26;52.83;100401.53;7366403;19;20011;-63
2022/07/19 05:12:42;;;;;;;0.03;0.03;;;;;;;22.28;52.74;100404.91;7363147;19;20052;-62
2022/07/19 05:15:09;;;;;;;0.00;0.00;;;;;;;22.28;53.08;100403.09;7363732;19;20006;-62
2022/07/19 05:17:35;;;;;;;0.00;0.00;;;;;;;22.28;52.81;100396.94;7364516;19;20014;-62
2022/07/19 05:20:00;;;;;;;0.03;0.03;;;;;;;22.30;52.55;100400.31;7361602;19;20014;-63
2022/07/19 05:22:26;;;;;;;0.00;0.00;;;;;;;22.31;53.52;100396.69;7365057;19;20728;-63
2022/07/19 05:24:53;;;;;;;0.00;0.00;;;;;;;22.32;53.34;100398.41;7365504;19;20011;-63
2022/07/19 05:27:19;;;;;;;0.10;0.10;;;;;;;22.24;52.73;100382.16;7364028;19;20006;-62
2022/07/19 05:29:45;;;;;;;0.00;0.00;;;;;;;22.33;52.31;100397.41;7365006;19;20033;-63
2022/07/19 05:32:10;;;;;;;0.00;0.00;;;;;;;22.35;52.35;100391.97;7362110;19;20002;-63
2022/07/19 05:34:36;;;;;;;0.00;0.00;;;;;;;22.38;53.15;100392.59;7365482;19;20025;-62
2022/07/19 05:37:01;;;;;;;0.10;0.10;;;;;;;22.37;52.78;100380.25;7364881;19;20006;-62
2022/07/19 05:39:27;;;;;;;0.03;0.03;;;;;;;22.41;51.66;100387.03;7365324;19;20042;-62
2022/07/19 05:41:52;;;;;;;0.10;0.10;;;;;;;22.39;52.03;100388.97;7363761;19;20010;-62
2022/07/19 05:44:18;;;;;;;0.10;0.10;;;;;;;22.46;52.45;100406.16;7365526;19;20384;-62
2022/07/19 05:46:43;;;;;;;0.10;0.10;;;;;;;22.47;53.32;100410.50;7362591;19;20002;-62
2022/07/19 05:49:08;;;;;;;0.03;0.03;;;;;;;22.46;52.53;100406.16;7364943;19;20022;-62
2022/07/19 05:51:35;;;;;;;0.10;0.10;;;;;;;22.48;52.94;100406.88;7363009;19;20014;-62
2022/07/19 05:54:00;;;;;;;0.10;0.10;;;;;;;22.49;52.70;100408.56;7366559;19;20016;-62
2022/07/19 05:56:26;;;;;;;0.00;0.00;;;;;;;22.50;52.04;100412.91;7359687;19;20007;-62
2022/07/19 05:58:52;;;;;;;0.00;0.00;;;;;;;22.52;53.10;100405.69;7360181;19;20049;-63
2022/07/19 06:01:17;;;;;;;0.03;0.03;;;;;;;22.53;52.65;100399.41;7362758;19;20002;-62
2022/07/19 06:03:43;;;;;;;0.05;0.05;;;;;;;22.57;53.24;100384.03;7362332;19;20014;-63
2022/07/19 06:06:09;;;;;;;0.10;0.10;;;;;;;22.62;53.48;100384.53;7363737;19;20061;-63
2022/07/19 06:08:35;;;;;;;0.10;0.10;;;;;;;22.66;53.01;100374.50;7361713;19;20011;-62
2022/07/19 06:11:00;;;;;;;0.00;0.00;;;;;;;22.71;53.03;100372.31;7363538;19;20106;-62
2022/07/19 06:13:25;;;;;;;0.00;0.00;;;;;;;22.76;52.60;100367.50;7361898;19;20022;-62
2022/07/19 06:15:51;;;;;;;0.00;0.00;;;;;;;22.77;53.06;100359.38;7367782;19;20029;-62
2022/07/19 06:18:17;;;;;;;0.10;0.10;;;;;;;22.85;52.73;100372.06;7369511;19;20022;-62
2022/07/19 06:20:42;;;;;;;0.00;0.00;;;;;;;22.92;52.80;100381.31;7368844;19;20672;-62
2022/07/19 06:23:08;;;;;;;0.00;0.00;;;;;;;22.98;52.85;100386.13;7371068;19;20014;-63
2022/07/19 06:25:33;;;;;;;0.00;0.00;;;;;;;23.01;52.34;100385.03;7367995;19;20002;-62
2022/07/19 06:27:59;;;;;;;0.00;0.00;;;;;;;23.08;52.38;100375.59;7370118;19;20010;-62
2022/07/19 06:30:24;;;;;;;0.10;0.10;;;;;;;23.13;52.40;100377.91;7369193;19;20014;-62
2022/07/19 06:32:50;;;;;;;0.10;0.10;;;;;;;23.08;53.12;100367.63;7370831;19;20023;-62
2022/07/19 06:35:15;;;;;;;0.10;0.10;;;;;;;23.20;52.74;100379.94;7366762;19;20615;-62
2022/07/19 06:37:40;;;;;;;0.10;0.10;;;;;;;23.21;52.78;100365.63;7368990;19;20011;-62
2022/07/19 06:40:08;;;;;;;0.10;0.10;;;;;;;23.32;52.49;100375.44;7367514;19;20010;-62
2022/07/19 06:42:34;;;;;;;;;;;;;;;23.40;50.53;100380.13;7369770;19;20604;-62
2022/07/19 06:45:01;;;;;;;0.00;0.00;;;;;;;23.39;52.88;100389.94;7367515;19;20002;-62
2022/07/19 06:47:30;;;;;;;0.10;0.10;;;;;;;23.45;52.58;100388.59;7367768;19;20018;-62
2022/07/19 06:49:55;;;;;;;0.10;0.10;;;;;;;23.46;52.38;100380.47;7364686;19;20009;-62
2022/07/19 06:52:20;;;;;;;0.05;0.05;;;;;;;23.51;52.08;100382.75;7367095;19;20477;-62
2022/07/19 06:54:46;;;;;;;0.10;0.10;;;;;;;23.56;51.81;100384.06;7367919;19;20014;-62
2022/07/19 06:57:11;;;;;;;0.00;0.00;;;;;;;23.61;52.21;100391.69;7366545;19;20007;-62
2022/07/19 06:59:37;;;;;;;0.10;0.10;;;;;;;23.67;52.18;100388.59;7364969;19;20010;-62
2022/07/19 07:02:04;;;;;;;0.10;0.10;;;;;;;23.62;51.82;100363.22;7364391;19;20006;-62
2022/07/19 07:04:29;;;;;;;0.00;0.00;;;;;;;23.76;51.93;100360.28;7363509;19;20010;-61
2022/07/19 07:06:55;;;;;;;0.10;0.10;;;;;;;23.85;51.33;100364.03;7364587;19;20018;-61
2022/07/19 07:09:20;;;;;;;0.08;0.08;;;;;;;23.92;52.01;100358.03;7367301;19;20007;-62
2022/07/19 07:11:45;;;;;;;0.10;0.10;;;;;;;23.99;51.08;100361.06;7365997;19;20478;-61
2022/07/19 07:14:11;;;;;;;0.08;0.08;;;;;;;24.07;51.62;100354.06;7365275;19;20062;-62
2022/07/19 07:16:36;;;;;;;0.00;0.00;;;;;;;24.16;51.81;100356.94;7360764;19;20726;-62
2022/07/19 07:19:02;;;;;;;0.10;0.10;;;;;;;24.26;50.97;100360.53;7368148;19;20027;-62
2022/07/19 07:21:27;;;;;;;0.08;0.08;;;;;;;24.34;51.21;100363.38;7360853;19;20014;-61
2022/07/19 07:23:53;;;;;;;0.00;0.00;;;;;;;24.45;52.22;100374.03;7363648;19;20706;-62
2022/07/19 07:26:18;;;;;;;0.00;0.00;;;;;;;24.54;51.98;100370.56;7360537;19;20069;-61
2022/07/19 07:28:43;;;;;;;0.10;0.10;;;;;;;24.63;51.11;100370.72;7368575;19;20015;-63
2022/07/19 07:31:09;;;;;;;0.10;0.10;;;;;;;24.71;51.40;100368.25;7368324;19;20085;-62
2022/07/19 07:33:34;;;;;;;0.00;0.00;;;;;;;24.79;51.39;100363.09;7365305;19;20025;-62
2022/07/19 07:36:00;;;;;;;0.10;0.10;;;;;;;24.87;51.33;100363.25;7362447;19;20387;-62
2022/07/19 07:38:25;;;;;;;0.10;0.10;;;;;;;24.95;51.08;100367.94;7365084;19;20021;-62
2022/07/19 07:40:50;;;;;;;0.10;0.10;;;;;;;25.03;51.01;100368.06;7367582;19;20011;-62
2022/07/19 07:43:16;;;;;;;0.10;0.10;;;;;;;25.12;50.99;100366.44;7367815;19;20403;-62
2022/07/19 07:45:42;;;;;;;0.10;0.10;;;;;;;25.20;50.66;100359.44;7366453;19;20006;-62
2022/07/19 07:48:08;;;;;;;0.10;0.10;;;;;;;25.19;50.71;100346.19;7361848;19;20010;-62
2022/07/19 07:50:34;;;;;;;0.10;0.10;;;;;;;25.35;50.25;100358.06;7365453;19;20010;-62
2022/07/19 07:52:59;;;;;;;0.10;0.10;;;;;;;25.44;49.97;100364.41;7366670;19;20006;-62
2022/07/19 07:55:24;;;;;;;0.10;0.10;;;;;;;25.49;49.52;100354.13;7365515;19;20760;-62
2022/07/19 07:57:50;;;;;;;0.10;0.10;;;;;;;25.62;49.14;100354.72;7363709;19;20036;-63
2022/07/19 08:00:15;;;;;;;0.10;0.10;;;;;;;25.72;48.85;100345.84;7360560;19;19998;-57
2022/07/19 08:02:45;;;;;;;0.10;0.10;;;;;;;25.86;48.94;100345.47;7364114;19;20058;-56
2022/07/19 08:05:11;;;;;;;0.10;0.10;;;;;;;25.91;48.77;100340.53;7358714;19;20318;-55
2022/07/19 08:07:37;;;;;;;0.10;0.10;;;;;;;26.01;48.28;100333.34;7364789;19;20006;-57
2022/07/19 08:10:05;;;;;;;0.00;0.00;;;;;;;26.12;48.14;100329.66;7366602;19;20827;-56
2022/07/19 08:12:31;;;;;;;0.00;0.00;;;;;;;26.20;47.73;100318.22;7360800;19;27264;-55
2022/07/19 08:14:56;;;;;;;0.08;0.08;;;;;;;26.28;47.50;100324.53;7360503;19;20018;-57
2022/07/19 08:17:21;;;;;;;0.08;0.08;;;;;;;26.38;47.59;100332.53;7359474;19;21491;-57
2022/07/19 08:19:47;;;;;;;0.10;0.10;;;;;;;26.45;47.45;100331.00;7364332;19;20052;-58
2022/07/19 08:22:16;;;;;;;0.00;0.00;;;;;;;26.62;47.04;100332.91;7362370;19;20030;-57
2022/07/19 08:24:42;;;;;;;0.10;0.10;;;;;;;26.67;46.57;100329.78;7366082;19;20044;-57
2022/07/19 08:27:07;;;;;;;0.00;0.00;;;;;;;26.77;46.83;100330.59;7364032;19;20018;-57
2022/07/19 08:29:33;;;;;;;0.05;0.05;;;;;;;26.82;46.13;100328.31;7363940;19;20046;-57
2022/07/19 08:31:58;;;;;;;0.00;0.00;;;;;;;26.97;46.41;100336.69;7366845;19;21469;-58
2022/07/19 08:34:24;;;;;;;0.00;0.00;;;;;;;27.10;46.19;100347.94;7364697;19;20034;-57
2022/07/19 08:36:49;;;;;;;0.03;0.03;;;;;;;27.22;45.62;100339.66;7363830;19;20013;-57
2022/07/19 08:39:15;;;;;;;0.00;0.00;;;;;;;27.32;44.50;100340.44;7360424;19;20097;-57
2022/07/19 08:41:43;;;;;;;0.00;0.00;;;;;;;27.47;44.75;100346.97;7351472;19;20105;-56
2022/07/19 08:44:10;;;;;;;0.03;0.03;;;;;;;27.55;44.94;100347.06;7360034;19;20011;-57
2022/07/19 08:46:36;;;;;;;0.00;0.00;;;;;;;27.63;44.04;100355.19;7357055;19;20090;-54
2022/07/19 08:49:02;;;;;;;0.00;0.00;;;;;;;27.73;43.98;100354.28;7358083;19;20094;-56
2022/07/19 08:51:27;;;;;;;0.10;0.10;;;;;;;27.82;43.86;100348.84;7357284;19;20442;-56
2022/07/19 08:53:53;;;;;;;0.10;0.10;;;;;;;27.89;43.51;100349.09;7358939;19;20023;-54
2022/07/19 08:59:03;;;;;;;0.00;0.00;;;;;;;28.15;43.09;100360.69;7356471;19;20040;-57
2022/07/19 09:01:29;;;;;;;0.00;0.00;;;;;;;28.25;42.74;100365.13;7358287;19;20984;-57
2022/07/19 09:04:11;;;;;;;0.10;0.10;;;;;;;28.46;43.05;100373.69;7358306;19;20047;-57
2022/07/19 09:07:03;;;;;;;0.00;0.00;;;;;;;28.60;42.81;100369.56;7357530;19;20014;-57
2022/07/19 09:09:31;;;;;;;0.10;0.10;;;;;;;28.63;42.33;100364.69;7254600;19;2004418;-58
2022/07/19 09:11:58;;;;;;;0.10;0.10;;;;;;;28.73;41.31;100366.44;7355776;19;20014;-56
2022/07/19 09:14:35;;;;;;;0.10;0.10;;;;;;;28.84;41.52;100350.03;7358772;19;21286;-57
2022/07/19 09:17:09;;;;;;;0.10;0.10;;;;;;;28.99;42.04;100348.44;7356554;19;20006;-56
2022/07/19 09:19:40;;;;;;;0.00;0.00;;;;;;;29.09;41.67;100365.28;7358591;19;20021;-56
2022/07/19 09:22:19;;;;;;;0.10;0.10;;;;;;;29.20;41.47;100361.47;7355727;19;20010;-57
2022/07/19 09:24:48;;;;;;;0.00;0.00;;;;;;;29.21;41.34;100363.97;7353573;19;20003;-56
2022/07/19 09:27:17;;;;;;;0.00;0.00;;;;;;;29.27;41.45;100372.41;7353609;19;20027;-56
2022/07/19 09:29:46;;;;;;;0.10;0.10;;;;;;;29.33;40.20;100366.34;7358461;19;20098;-57
2022/07/19 09:32:17;;;;;;;0.00;0.00;;;;;;;29.43;41.30;100350.91;7356981;19;20037;-55
2022/07/19 09:34:51;;;;;;;0.10;0.10;;;;;;;29.50;41.16;100351.09;7357625;19;20010;-56
2022/07/19 09:37:28;;;;;;;0.08;0.08;;;;;;;29.59;41.18;100360.88;7355653;19;20533;-55
2022/07/19 09:40:04;;;;;;;0.10;0.10;;;;;;;29.63;41.05;100348.78;7357695;19;20034;-57
2022/07/19 09:42:41;;;;;;;0.00;0.00;;;;;;;29.71;41.09;100330.81;7356296;19;20006;-55
2022/07/19 09:45:09;;;;;;;0.00;0.00;;;;;;;29.76;39.40;100340.22;7356501;19;20018;-56
2022/07/19 09:47:46;;;;;;;0.10;0.10;;;;;;;29.87;40.13;100347.97;7356997;19;20650;-57
2022/07/19 09:50:17;;;;;;;0.00;0.00;;;;;;;29.88;38.15;100349.66;7356133;19;20018;-56
2022/07/19 09:52:44;;;;;;;0.00;0.00;;;;;;;29.93;37.79;100374.22;7352172;19;20010;-56
2022/07/19 09:55:11;;;;;;;0.00;0.00;;;;;;;29.90;38.17;100391.53;7355594;19;20014;-57
2022/07/19 09:57:40;;;;;;;0.00;0.00;;;;;;;30.00;37.71;100396.75;7358047;19;20410;-57
2022/07/19 10:00:07;;;;;;;0.00;0.00;;;;;;;29.89;37.92;100406.00;7357296;19;20034;-56
2022/07/19 10:02:36;;;;;;;0.00;0.00;;;;;;;29.97;38.41;100426.72;7356218;19;20013;-56
2022/07/19 10:05:03;;;;;;;0.08;0.08;;;;;;;29.90;38.78;100383.44;7355219;19;20013;-56
2022/07/19 10:07:28;;;;;;;;;;;;;;;30.08;39.62;100367.13;7355569;19;20022;-56
2022/07/19 10:09:54;;;;;;;0.00;0.00;;;;;;;30.09;38.55;100403.81;7357739;19;20287;-55
2022/07/19 10:12:21;;;;;;;0.00;0.00;;;;;;;30.26;38.40;100403.84;7356907;19;20066;-56
2022/07/19 10:14:46;;;;;;;0.10;0.10;;;;;;;30.40;37.65;100362.75;7356656;19;20060;-58
2022/07/19 10:17:29;;;;;;;0.07;0.07;;;;;;;30.84;38.21;100373.09;7355699;19;20656;-56
2022/07/19 10:19:55;;;;;;;0.10;0.10;;;;;;;31.12;37.04;100387.78;7356554;19;20013;-57
2022/07/19 10:22:25;;;;;;;0.00;0.00;;;;;;;31.50;37.39;100374.47;7355230;19;20015;-57
2022/07/19 10:24:56;;;;;;;0.10;0.10;;;;;;;31.91;37.17;100361.53;7357090;19;21466;-56
2022/07/19 10:27:24;;;;;;;0.10;0.10;;;;;;;32.40;36.12;100371.09;7353915;19;20013;-58
2022/07/19 10:30:09;;;;;;;0.00;0.00;;;;;;;32.93;37.18;100369.16;7356427;19;20018;-53
2022/07/19 10:32:35;;;;;;;0.00;0.00;;;;;;;33.24;36.36;100353.50;7355654;19;20530;-55
2022/07/19 10:35:17;;;;;;;0.00;0.00;;;;;;;33.82;36.15;100351.63;7355097;19;20038;-56
2022/07/19 10:37:44;;;;;;;0.00;0.00;;;;;;;34.06;33.85;100361.25;7356463;19;21509;-55
2022/07/19 10:40:10;;;;;;;0.00;0.00;;;;;;;34.40;33.18;100356.88;7355057;19;20029;-54
2022/07/19 10:42:35;;;;;;;0.00;0.00;;;;;;;34.74;33.30;100344.41;7355558;19;20013;-55
2022/07/19 10:45:04;;;;;;;0.00;0.00;;;;;;;35.18;32.97;100341.28;7353149;19;20010;-56
2022/07/19 10:47:32;;;;;;;0.00;0.00;;;;;;;35.53;32.19;100360.16;7355485;19;20027;-55
2022/07/19 10:50:04;;;;;;;0.00;0.00;;;;;;;35.91;31.94;100356.88;7353286;19;20022;-53
2022/07/19 10:52:29;;;;;;;0.00;0.00;;;;;;;36.09;30.84;100338.91;7351465;19;20460;-55
2022/07/19 10:55:27;;;;;;;0.10;0.10;;;;;;;36.50;33.01;100339.69;7354597;19;25336;-56
2022/07/19 10:58:10;;;;;;;0.00;0.00;;;;;;;36.67;31.92;100327.31;7251655;19;2004763;-55
2022/07/19 11:00:44;;;;;;;0.00;0.00;;;;;;;36.80;30.82;100324.53;7357110;19;20028;-52
2022/07/19 11:03:22;;;;;;;0.10;0.10;;;;;;;36.81;31.10;100300.88;7359728;19;20175;-55
2022/07/19 11:05:48;;;;;;;0.03;0.03;;;;;;;36.60;29.51;100312.91;7359311;19;20015;-56
2022/07/19 11:08:14;;;;;;;0.00;0.00;;;;;;;36.47;29.92;100323.81;7361518;19;20034;-54
2022/07/19 11:10:40;;;;;;;0.00;0.00;;;;;;;36.34;30.18;100352.66;7360605;19;20018;-54
2022/07/19 11:13:06;;;;;;;0.10;0.10;;;;;;;36.21;29.34;100423.38;7360166;19;20014;-55
2022/07/19 11:15:31;;;;;;;0.10;0.10;;;;;;;36.04;29.09;100458.31;7360691;19;20011;-55
2022/07/19 11:17:58;;;;;;;0.00;0.00;;;;;;;35.90;29.21;100436.72;7361240;19;20018;-54
2022/07/19 11:20:25;;;;;;;0.00;0.00;;;;;;;35.67;29.45;100418.91;7360830;19;20038;-55
2022/07/19 11:22:52;;;;;;;0.00;0.00;;;;;;;35.44;30.17;100388.53;7359663;19;20011;-53
2022/07/19 11:25:25;;;;;;;0.00;0.00;;;;;;;35.28;30.64;100368.88;7361409;19;20011;-56
2022/07/19 11:27:51;;;;;;;0.00;0.00;;;;;;;35.01;30.63;100367.09;7361386;19;20038;-55